sensor_id;sensor_type;location;lat;lon;timestamp;P1;durP1;ratioP1;P2;durP2;ratioP2
36449;SDS011;22475;51.390;7.180;2022-08-18T00:00:06;12.18;;;10.98;;
36449;SDS011;22475;51.390;7.180;2022-08-18T00:02:37;15.20;;;11.05;;
36449;SDS011;22475;51.390;7.180;2022-08-18T00:05:05;18.25;;;13.25;;
36449;SDS011;22475;51.390;7.180;2022-08-18T00:07:33;15.50;;;12.27;;
36449;SDS011;22475;51.390;7.180;2022-08-18T00:10:03;16.58;;;12.90;;
36449;SDS011;22475;51.390;7.180;2022-08-18T00:12:32;18.02;;;14.35;;
36449;SDS011;22475;51.390;7.180;2022-08-18T00:15:03;17.30;;;12.13;;
36449;SDS011;22475;51.390;7.180;2022-08-18T00:17:31;12.68;;;11.30;;
36449;SDS011;22475;51.390;7.180;2022-08-18T00:20:00;12.93;;;11.50;;
36449;SDS011;22475;51.390;7.180;2022-08-18T00:22:27;12.02;;;10.77;;
36449;SDS011;22475;51.390;7.180;2022-08-18T00:24:55;13.50;;;11.90;;
36449;SDS011;22475;51.390;7.180;2022-08-18T00:27:23;13.13;;;11.65;;
36449;SDS011;22475;51.390;7.180;2022-08-18T00:29:52;14.30;;;12.80;;
36449;SDS011;22475;51.390;7.180;2022-08-18T00:32:22;12.45;;;11.32;;
36449;SDS011;22475;51.390;7.180;2022-08-18T00:34:51;13.15;;;11.73;;
36449;SDS011;22475;51.390;7.180;2022-08-18T00:37:20;12.57;;;11.13;;
36449;SDS011;22475;51.390;7.180;2022-08-18T00:39:49;13.60;;;10.80;;
36449;SDS011;22475;51.390;7.180;2022-08-18T00:42:18;16.20;;;11.60;;
36449;SDS011;22475;51.390;7.180;2022-08-18T00:44:47;15.32;;;13.13;;
36449;SDS011;22475;51.390;7.180;2022-08-18T00:47:14;12.63;;;11.32;;
36449;SDS011;22475;51.390;7.180;2022-08-18T00:49:41;12.10;;;10.82;;
36449;SDS011;22475;51.390;7.180;2022-08-18T00:52:10;16.52;;;12.88;;
36449;SDS011;22475;51.390;7.180;2022-08-18T00:54:41;13.88;;;10.85;;
36449;SDS011;22475;51.390;7.180;2022-08-18T00:57:11;16.02;;;12.02;;
36449;SDS011;22475;51.390;7.180;2022-08-18T00:59:42;14.20;;;12.70;;
36449;SDS011;22475;51.390;7.180;2022-08-18T01:02:15;16.60;;;12.30;;
36449;SDS011;22475;51.390;7.180;2022-08-18T01:04:47;14.18;;;11.52;;
36449;SDS011;22475;51.390;7.180;2022-08-18T01:07:23;13.38;;;12.02;;
36449;SDS011;22475;51.390;7.180;2022-08-18T01:09:55;13.18;;;10.98;;
36449;SDS011;22475;51.390;7.180;2022-08-18T01:12:24;14.73;;;10.68;;
36449;SDS011;22475;51.390;7.180;2022-08-18T01:14:51;14.20;;;12.57;;
36449;SDS011;22475;51.390;7.180;2022-08-18T01:17:19;12.55;;;11.27;;
36449;SDS011;22475;51.390;7.180;2022-08-18T01:20:04;13.07;;;11.68;;
36449;SDS011;22475;51.390;7.180;2022-08-18T01:22:55;14.93;;;12.75;;
36449;SDS011;22475;51.390;7.180;2022-08-18T01:25:25;13.90;;;11.05;;
36449;SDS011;22475;51.390;7.180;2022-08-18T01:28:10;13.43;;;11.73;;
36449;SDS011;22475;51.390;7.180;2022-08-18T01:30:44;13.73;;;12.30;;
36449;SDS011;22475;51.390;7.180;2022-08-18T01:33:13;15.52;;;11.90;;
36449;SDS011;22475;51.390;7.180;2022-08-18T01:35:40;16.83;;;13.50;;
36449;SDS011;22475;51.390;7.180;2022-08-18T01:38:14;13.88;;;12.27;;
36449;SDS011;22475;51.390;7.180;2022-08-18T01:40:43;17.50;;;12.15;;
36449;SDS011;22475;51.390;7.180;2022-08-18T01:43:10;16.95;;;14.20;;
36449;SDS011;22475;51.390;7.180;2022-08-18T01:45:37;13.30;;;11.90;;
36449;SDS011;22475;51.390;7.180;2022-08-18T01:48:04;15.20;;;13.02;;
36449;SDS011;22475;51.390;7.180;2022-08-18T01:50:31;12.90;;;11.40;;
36449;SDS011;22475;51.390;7.180;2022-08-18T01:52:59;19.63;;;12.75;;
36449;SDS011;22475;51.390;7.180;2022-08-18T01:55:30;13.18;;;11.63;;
36449;SDS011;22475;51.390;7.180;2022-08-18T01:57:57;18.90;;;13.75;;
36449;SDS011;22475;51.390;7.180;2022-08-18T02:00:25;12.93;;;11.32;;
36449;SDS011;22475;51.390;7.180;2022-08-18T02:02:52;13.40;;;11.60;;
36449;SDS011;22475;51.390;7.180;2022-08-18T02:05:23;12.38;;;11.13;;
36449;SDS011;22475;51.390;7.180;2022-08-18T02:07:56;11.73;;;10.52;;
36449;SDS011;22475;51.390;7.180;2022-08-18T02:10:23;11.90;;;10.55;;
36449;SDS011;22475;51.390;7.180;2022-08-18T02:12:52;12.73;;;10.57;;
36449;SDS011;22475;51.390;7.180;2022-08-18T02:15:19;12.40;;;11.13;;
36449;SDS011;22475;51.390;7.180;2022-08-18T02:17:46;19.55;;;14.60;;
36449;SDS011;22475;51.390;7.180;2022-08-18T02:20:14;13.43;;;11.45;;
36449;SDS011;22475;51.390;7.180;2022-08-18T02:22:44;13.30;;;12.00;;
36449;SDS011;22475;51.390;7.180;2022-08-18T02:25:12;16.95;;;15.15;;
36449;SDS011;22475;51.390;7.180;2022-08-18T02:27:40;13.10;;;11.70;;
36449;SDS011;22475;51.390;7.180;2022-08-18T02:30:10;12.02;;;10.73;;
36449;SDS011;22475;51.390;7.180;2022-08-18T02:32:39;12.80;;;11.10;;
36449;SDS011;22475;51.390;7.180;2022-08-18T02:35:06;12.00;;;10.65;;
36449;SDS011;22475;51.390;7.180;2022-08-18T02:37:35;11.90;;;10.68;;
36449;SDS011;22475;51.390;7.180;2022-08-18T02:40:02;15.07;;;12.00;;
36449;SDS011;22475;51.390;7.180;2022-08-18T02:42:29;12.63;;;11.35;;
36449;SDS011;22475;51.390;7.180;2022-08-18T02:44:56;12.90;;;11.55;;
36449;SDS011;22475;51.390;7.180;2022-08-18T02:47:24;15.43;;;13.30;;
36449;SDS011;22475;51.390;7.180;2022-08-18T02:49:51;13.30;;;11.90;;
36449;SDS011;22475;51.390;7.180;2022-08-18T02:52:18;12.40;;;11.23;;
36449;SDS011;22475;51.390;7.180;2022-08-18T02:54:45;13.07;;;11.52;;
36449;SDS011;22475;51.390;7.180;2022-08-18T02:57:12;13.05;;;11.77;;
36449;SDS011;22475;51.390;7.180;2022-08-18T02:59:39;13.82;;;11.70;;
36449;SDS011;22475;51.390;7.180;2022-08-18T03:02:07;11.90;;;10.68;;
36449;SDS011;22475;51.390;7.180;2022-08-18T03:04:36;12.52;;;11.25;;
36449;SDS011;22475;51.390;7.180;2022-08-18T03:07:04;12.38;;;11.15;;
36449;SDS011;22475;51.390;7.180;2022-08-18T03:09:32;12.40;;;10.90;;
36449;SDS011;22475;51.390;7.180;2022-08-18T03:12:00;13.15;;;11.60;;
36449;SDS011;22475;51.390;7.180;2022-08-18T03:14:27;22.33;;;16.88;;
36449;SDS011;22475;51.390;7.180;2022-08-18T03:16:54;14.68;;;13.05;;
36449;SDS011;22475;51.390;7.180;2022-08-18T03:19:22;14.05;;;12.43;;
36449;SDS011;22475;51.390;7.180;2022-08-18T03:21:51;17.05;;;13.20;;
36449;SDS011;22475;51.390;7.180;2022-08-18T03:24:19;14.55;;;12.57;;
36449;SDS011;22475;51.390;7.180;2022-08-18T03:26:46;18.98;;;14.32;;
36449;SDS011;22475;51.390;7.180;2022-08-18T03:29:13;15.52;;;13.20;;
36449;SDS011;22475;51.390;7.180;2022-08-18T03:31:40;25.02;;;17.33;;
36449;SDS011;22475;51.390;7.180;2022-08-18T03:34:09;33.95;;;22.40;;
36449;SDS011;22475;51.390;7.180;2022-08-18T03:36:37;14.80;;;12.25;;
36449;SDS011;22475;51.390;7.180;2022-08-18T03:39:07;12.82;;;11.07;;
36449;SDS011;22475;51.390;7.180;2022-08-18T03:41:36;13.60;;;11.98;;
36449;SDS011;22475;51.390;7.180;2022-08-18T03:44:05;14.88;;;13.10;;
36449;SDS011;22475;51.390;7.180;2022-08-18T03:46:32;12.85;;;11.00;;
36449;SDS011;22475;51.390;7.180;2022-08-18T03:48:59;16.58;;;12.32;;
36449;SDS011;22475;51.390;7.180;2022-08-18T03:51:27;12.75;;;11.45;;
36449;SDS011;22475;51.390;7.180;2022-08-18T03:53:57;13.30;;;11.65;;
36449;SDS011;22475;51.390;7.180;2022-08-18T03:56:28;16.13;;;12.75;;
36449;SDS011;22475;51.390;7.180;2022-08-18T03:58:59;19.55;;;14.90;;
36449;SDS011;22475;51.390;7.180;2022-08-18T04:01:29;16.83;;;12.18;;
36449;SDS011;22475;51.390;7.180;2022-08-18T04:03:58;13.35;;;11.73;;
36449;SDS011;22475;51.390;7.180;2022-08-18T04:06:29;15.52;;;13.77;;
36449;SDS011;22475;51.390;7.180;2022-08-18T04:08:59;15.27;;;13.40;;
36449;SDS011;22475;51.390;7.180;2022-08-18T04:11:29;16.17;;;12.50;;
36449;SDS011;22475;51.390;7.180;2022-08-18T04:13:57;17.23;;;13.32;;
36449;SDS011;22475;51.390;7.180;2022-08-18T04:16:24;15.55;;;12.57;;
36449;SDS011;22475;51.390;7.180;2022-08-18T04:18:52;28.30;;;19.75;;
36449;SDS011;22475;51.390;7.180;2022-08-18T04:21:20;15.98;;;13.05;;
36449;SDS011;22475;51.390;7.180;2022-08-18T04:23:47;24.45;;;16.60;;
36449;SDS011;22475;51.390;7.180;2022-08-18T04:26:14;19.77;;;14.70;;
36449;SDS011;22475;51.390;7.180;2022-08-18T04:28:43;16.27;;;13.63;;
36449;SDS011;22475;51.390;7.180;2022-08-18T04:31:11;30.70;;;21.00;;
36449;SDS011;22475;51.390;7.180;2022-08-18T04:33:40;18.52;;;15.38;;
36449;SDS011;22475;51.390;7.180;2022-08-18T04:36:07;16.40;;;13.95;;
36449;SDS011;22475;51.390;7.180;2022-08-18T04:38:36;23.88;;;17.17;;
36449;SDS011;22475;51.390;7.180;2022-08-18T04:41:03;16.50;;;13.38;;
36449;SDS011;22475;51.390;7.180;2022-08-18T04:43:31;16.45;;;12.90;;
36449;SDS011;22475;51.390;7.180;2022-08-18T04:45:59;14.13;;;11.82;;
36449;SDS011;22475;51.390;7.180;2022-08-18T04:48:28;19.55;;;14.88;;
36449;SDS011;22475;51.390;7.180;2022-08-18T04:51:01;16.27;;;13.05;;
36449;SDS011;22475;51.390;7.180;2022-08-18T04:53:30;38.25;;;21.83;;
36449;SDS011;22475;51.390;7.180;2022-08-18T04:56:16;20.10;;;15.25;;
36449;SDS011;22475;51.390;7.180;2022-08-18T04:58:50;19.65;;;13.63;;
36449;SDS011;22475;51.390;7.180;2022-08-18T05:01:20;18.85;;;14.50;;
36449;SDS011;22475;51.390;7.180;2022-08-18T05:03:49;35.40;;;20.30;;
36449;SDS011;22475;51.390;7.180;2022-08-18T05:06:17;23.83;;;16.10;;
36449;SDS011;22475;51.390;7.180;2022-08-18T05:08:49;23.15;;;14.80;;
36449;SDS011;22475;51.390;7.180;2022-08-18T05:11:17;30.75;;;18.63;;
36449;SDS011;22475;51.390;7.180;2022-08-18T05:13:45;25.40;;;16.15;;
36449;SDS011;22475;51.390;7.180;2022-08-18T05:16:12;27.15;;;16.88;;
36449;SDS011;22475;51.390;7.180;2022-08-18T05:18:40;28.52;;;15.45;;
36449;SDS011;22475;51.390;7.180;2022-08-18T05:21:07;29.48;;;15.77;;
36449;SDS011;22475;51.390;7.180;2022-08-18T05:23:39;28.55;;;17.80;;
36449;SDS011;22475;51.390;7.180;2022-08-18T05:26:06;35.13;;;19.05;;
36449;SDS011;22475;51.390;7.180;2022-08-18T05:28:34;35.42;;;19.27;;
36449;SDS011;22475;51.390;7.180;2022-08-18T05:31:05;33.15;;;17.60;;
36449;SDS011;22475;51.390;7.180;2022-08-18T05:33:33;30.90;;;19.25;;
36449;SDS011;22475;51.390;7.180;2022-08-18T05:36:03;37.13;;;18.48;;
36449;SDS011;22475;51.390;7.180;2022-08-18T05:38:39;39.33;;;20.15;;
36449;SDS011;22475;51.390;7.180;2022-08-18T05:41:18;37.38;;;20.40;;
36449;SDS011;22475;51.390;7.180;2022-08-18T05:43:50;34.28;;;18.83;;
36449;SDS011;22475;51.390;7.180;2022-08-18T05:46:17;34.58;;;19.85;;
36449;SDS011;22475;51.390;7.180;2022-08-18T05:48:46;45.15;;;21.75;;
36449;SDS011;22475;51.390;7.180;2022-08-18T05:51:15;37.38;;;20.85;;
36449;SDS011;22475;51.390;7.180;2022-08-18T05:53:47;37.75;;;21.33;;
36449;SDS011;22475;51.390;7.180;2022-08-18T05:56:32;28.13;;;16.65;;
36449;SDS011;22475;51.390;7.180;2022-08-18T05:59:20;42.28;;;21.45;;
36449;SDS011;22475;51.390;7.180;2022-08-18T06:01:52;40.38;;;20.50;;
36449;SDS011;22475;51.390;7.180;2022-08-18T06:07:15;51.33;;;23.85;;
36449;SDS011;22475;51.390;7.180;2022-08-18T06:09:45;51.63;;;25.55;;
36449;SDS011;22475;51.390;7.180;2022-08-18T06:12:23;51.83;;;25.00;;
36449;SDS011;22475;51.390;7.180;2022-08-18T06:14:56;30.95;;;18.15;;
36449;SDS011;22475;51.390;7.180;2022-08-18T06:17:31;31.42;;;16.85;;
36449;SDS011;22475;51.390;7.180;2022-08-18T06:20:17;31.45;;;17.42;;
36449;SDS011;22475;51.390;7.180;2022-08-18T06:22:52;29.38;;;17.15;;
36449;SDS011;22475;51.390;7.180;2022-08-18T06:25:26;37.78;;;18.42;;
36449;SDS011;22475;51.390;7.180;2022-08-18T06:28:02;40.95;;;20.13;;
36449;SDS011;22475;51.390;7.180;2022-08-18T06:30:42;39.67;;;20.83;;
36449;SDS011;22475;51.390;7.180;2022-08-18T06:33:16;42.88;;;21.38;;
36449;SDS011;22475;51.390;7.180;2022-08-18T06:36:01;40.92;;;19.73;;
36449;SDS011;22475;51.390;7.180;2022-08-18T06:38:37;40.05;;;19.95;;
36449;SDS011;22475;51.390;7.180;2022-08-18T06:41:14;32.58;;;19.20;;
36449;SDS011;22475;51.390;7.180;2022-08-18T06:43:47;34.17;;;19.08;;
36449;SDS011;22475;51.390;7.180;2022-08-18T06:46:35;37.28;;;21.83;;
36449;SDS011;22475;51.390;7.180;2022-08-18T06:49:07;34.13;;;18.60;;
36449;SDS011;22475;51.390;7.180;2022-08-18T06:51:35;40.15;;;20.27;;
36449;SDS011;22475;51.390;7.180;2022-08-18T06:54:06;33.90;;;18.27;;
36449;SDS011;22475;51.390;7.180;2022-08-18T06:56:51;36.05;;;17.90;;
36449;SDS011;22475;51.390;7.180;2022-08-18T06:59:21;34.40;;;19.25;;
36449;SDS011;22475;51.390;7.180;2022-08-18T07:01:51;34.20;;;19.10;;
36449;SDS011;22475;51.390;7.180;2022-08-18T07:04:30;34.90;;;18.17;;
36449;SDS011;22475;51.390;7.180;2022-08-18T07:07:11;37.00;;;18.63;;
36449;SDS011;22475;51.390;7.180;2022-08-18T07:09:56;33.28;;;18.15;;
36449;SDS011;22475;51.390;7.180;2022-08-18T07:12:24;42.97;;;20.08;;
36449;SDS011;22475;51.390;7.180;2022-08-18T07:14:53;35.00;;;18.88;;
36449;SDS011;22475;51.390;7.180;2022-08-18T07:17:23;33.95;;;20.08;;
36449;SDS011;22475;51.390;7.180;2022-08-18T07:19:57;29.85;;;18.48;;
36449;SDS011;22475;51.390;7.180;2022-08-18T07:22:26;33.75;;;17.95;;
36449;SDS011;22475;51.390;7.180;2022-08-18T07:24:54;32.97;;;17.77;;
36449;SDS011;22475;51.390;7.180;2022-08-18T07:27:39;35.85;;;20.02;;
36449;SDS011;22475;51.390;7.180;2022-08-18T07:30:09;30.13;;;17.17;;
36449;SDS011;22475;51.390;7.180;2022-08-18T07:32:39;42.15;;;20.50;;
36449;SDS011;22475;51.390;7.180;2022-08-18T07:35:09;40.75;;;20.95;;
36449;SDS011;22475;51.390;7.180;2022-08-18T07:37:42;48.17;;;21.52;;
36449;SDS011;22475;51.390;7.180;2022-08-18T07:40:21;35.67;;;18.98;;
36449;SDS011;22475;51.390;7.180;2022-08-18T07:42:53;40.10;;;20.75;;
36449;SDS011;22475;51.390;7.180;2022-08-18T07:45:26;41.47;;;22.55;;
36449;SDS011;22475;51.390;7.180;2022-08-18T07:48:00;33.67;;;18.17;;
36449;SDS011;22475;51.390;7.180;2022-08-18T07:50:33;37.47;;;19.30;;
36449;SDS011;22475;51.390;7.180;2022-08-18T07:53:06;43.40;;;21.23;;
36449;SDS011;22475;51.390;7.180;2022-08-18T07:55:40;37.90;;;20.77;;
36449;SDS011;22475;51.390;7.180;2022-08-18T07:58:15;35.45;;;18.63;;
36449;SDS011;22475;51.390;7.180;2022-08-18T08:00:49;34.38;;;18.08;;
36449;SDS011;22475;51.390;7.180;2022-08-18T08:03:24;34.38;;;18.48;;
36449;SDS011;22475;51.390;7.180;2022-08-18T08:06:02;41.45;;;19.67;;
36449;SDS011;22475;51.390;7.180;2022-08-18T08:08:35;33.42;;;18.30;;
36449;SDS011;22475;51.390;7.180;2022-08-18T08:11:13;38.47;;;18.60;;
36449;SDS011;22475;51.390;7.180;2022-08-18T08:13:48;37.20;;;19.45;;
36449;SDS011;22475;51.390;7.180;2022-08-18T08:16:25;43.03;;;22.73;;
36449;SDS011;22475;51.390;7.180;2022-08-18T08:19:02;43.65;;;21.77;;
36449;SDS011;22475;51.390;7.180;2022-08-18T08:21:55;41.90;;;20.90;;
36449;SDS011;22475;51.390;7.180;2022-08-18T08:24:27;48.47;;;25.60;;
36449;SDS011;22475;51.390;7.180;2022-08-18T08:27:08;41.30;;;20.10;;
36449;SDS011;22475;51.390;7.180;2022-08-18T08:29:44;43.50;;;21.38;;
36449;SDS011;22475;51.390;7.180;2022-08-18T08:32:19;47.63;;;21.95;;
36449;SDS011;22475;51.390;7.180;2022-08-18T08:34:51;62.53;;;29.85;;
36449;SDS011;22475;51.390;7.180;2022-08-18T08:37:23;57.00;;;27.17;;
36449;SDS011;22475;51.390;7.180;2022-08-18T08:39:59;40.63;;;21.45;;
36449;SDS011;22475;51.390;7.180;2022-08-18T08:42:35;57.13;;;28.77;;
36449;SDS011;22475;51.390;7.180;2022-08-18T08:45:06;56.22;;;28.70;;
36449;SDS011;22475;51.390;7.180;2022-08-18T08:47:38;46.28;;;22.88;;
36449;SDS011;22475;51.390;7.180;2022-08-18T08:50:10;64.47;;;27.58;;
36449;SDS011;22475;51.390;7.180;2022-08-18T08:52:42;56.47;;;27.50;;
36449;SDS011;22475;51.390;7.180;2022-08-18T08:55:15;51.45;;;26.88;;
36449;SDS011;22475;51.390;7.180;2022-08-18T08:57:48;46.40;;;22.92;;
36449;SDS011;22475;51.390;7.180;2022-08-18T09:00:19;39.65;;;20.73;;
36449;SDS011;22475;51.390;7.180;2022-08-18T09:05:43;36.85;;;19.52;;
36449;SDS011;22475;51.390;7.180;2022-08-18T09:08:19;34.38;;;19.48;;
36449;SDS011;22475;51.390;7.180;2022-08-18T09:11:02;49.80;;;26.73;;
36449;SDS011;22475;51.390;7.180;2022-08-18T09:14:02;46.58;;;23.98;;
36449;SDS011;22475;51.390;7.180;2022-08-18T09:16:46;42.60;;;22.95;;
36449;SDS011;22475;51.390;7.180;2022-08-18T09:19:28;41.47;;;22.38;;
36449;SDS011;22475;51.390;7.180;2022-08-18T09:22:18;37.85;;;21.05;;
36449;SDS011;22475;51.390;7.180;2022-08-18T09:24:56;32.95;;;19.60;;
36449;SDS011;22475;51.390;7.180;2022-08-18T09:27:29;36.85;;;19.10;;
36449;SDS011;22475;51.390;7.180;2022-08-18T09:30:04;31.58;;;17.90;;
36449;SDS011;22475;51.390;7.180;2022-08-18T09:35:31;31.90;;;17.50;;
36449;SDS011;22475;51.390;7.180;2022-08-18T09:38:10;36.63;;;18.52;;
36449;SDS011;22475;51.390;7.180;2022-08-18T09:41:03;29.10;;;17.27;;
36449;SDS011;22475;51.390;7.180;2022-08-18T09:43:53;27.70;;;17.08;;
36449;SDS011;22475;51.390;7.180;2022-08-18T09:46:58;31.85;;;17.42;;
36449;SDS011;22475;51.390;7.180;2022-08-18T09:49:42;24.25;;;16.52;;
36449;SDS011;22475;51.390;7.180;2022-08-18T10:01:36;32.53;;;17.67;;
36449;SDS011;22475;51.390;7.180;2022-08-18T10:06:54;28.42;;;17.45;;
36449;SDS011;22475;51.390;7.180;2022-08-18T10:09:43;35.20;;;18.05;;
36449;SDS011;22475;51.390;7.180;2022-08-18T10:12:31;27.00;;;16.38;;
36449;SDS011;22475;51.390;7.180;2022-08-18T10:15:18;31.42;;;17.15;;
36449;SDS011;22475;51.390;7.180;2022-08-18T10:18:04;26.98;;;17.08;;
36449;SDS011;22475;51.390;7.180;2022-08-18T10:20:46;29.15;;;17.67;;
36449;SDS011;22475;51.390;7.180;2022-08-18T10:26:25;28.80;;;17.40;;
36449;SDS011;22475;51.390;7.180;2022-08-18T10:32:23;26.17;;;16.85;;
36449;SDS011;22475;51.390;7.180;2022-08-18T10:35:05;26.25;;;16.73;;
36449;SDS011;22475;51.390;7.180;2022-08-18T10:41:12;28.13;;;18.33;;
36449;SDS011;22475;51.390;7.180;2022-08-18T10:43:47;29.05;;;17.20;;
36449;SDS011;22475;51.390;7.180;2022-08-18T10:46:18;25.58;;;16.05;;
36449;SDS011;22475;51.390;7.180;2022-08-18T10:48:58;24.23;;;15.18;;
36449;SDS011;22475;51.390;7.180;2022-08-18T10:51:36;25.30;;;15.85;;
36449;SDS011;22475;51.390;7.180;2022-08-18T10:54:16;28.30;;;18.00;;
36449;SDS011;22475;51.390;7.180;2022-08-18T10:56:53;29.33;;;17.90;;
36449;SDS011;22475;51.390;7.180;2022-08-18T10:59:30;26.65;;;17.10;;
36449;SDS011;22475;51.390;7.180;2022-08-18T11:02:08;24.70;;;16.30;;
36449;SDS011;22475;51.390;7.180;2022-08-18T11:04:50;27.17;;;17.23;;
36449;SDS011;22475;51.390;7.180;2022-08-18T11:07:19;25.58;;;16.75;;
36449;SDS011;22475;51.390;7.180;2022-08-18T11:09:49;26.35;;;17.02;;
36449;SDS011;22475;51.390;7.180;2022-08-18T11:15:11;27.42;;;16.75;;
36449;SDS011;22475;51.390;7.180;2022-08-18T11:17:48;27.27;;;16.63;;
36449;SDS011;22475;51.390;7.180;2022-08-18T11:20:26;31.17;;;16.92;;
36449;SDS011;22475;51.390;7.180;2022-08-18T11:22:57;28.60;;;17.38;;
36449;SDS011;22475;51.390;7.180;2022-08-18T11:25:27;27.48;;;15.40;;
36449;SDS011;22475;51.390;7.180;2022-08-18T11:27:56;23.77;;;15.18;;
36449;SDS011;22475;51.390;7.180;2022-08-18T11:30:25;26.23;;;15.70;;
36449;SDS011;22475;51.390;7.180;2022-08-18T11:32:56;21.90;;;14.85;;
36449;SDS011;22475;51.390;7.180;2022-08-18T11:35:26;25.15;;;17.48;;
36449;SDS011;22475;51.390;7.180;2022-08-18T11:37:57;25.30;;;16.85;;
36449;SDS011;22475;51.390;7.180;2022-08-18T11:40:30;29.08;;;17.33;;
36449;SDS011;22475;51.390;7.180;2022-08-18T11:43:04;25.63;;;16.45;;
36449;SDS011;22475;51.390;7.180;2022-08-18T11:45:47;33.80;;;19.23;;
36449;SDS011;22475;51.390;7.180;2022-08-18T11:48:32;29.52;;;19.10;;
36449;SDS011;22475;51.390;7.180;2022-08-18T11:51:09;22.52;;;15.15;;
36449;SDS011;22475;51.390;7.180;2022-08-18T11:53:50;26.80;;;16.00;;
36449;SDS011;22475;51.390;7.180;2022-08-18T11:56:21;23.48;;;16.15;;
36449;SDS011;22475;51.390;7.180;2022-08-18T11:58:51;26.70;;;17.88;;
36449;SDS011;22475;51.390;7.180;2022-08-18T12:04:08;25.05;;;17.30;;
36449;SDS011;22475;51.390;7.180;2022-08-18T12:06:54;22.60;;;15.73;;
36449;SDS011;22475;51.390;7.180;2022-08-18T12:09:31;32.60;;;18.25;;
36449;SDS011;22475;51.390;7.180;2022-08-18T12:12:01;27.63;;;19.50;;
36449;SDS011;22475;51.390;7.180;2022-08-18T12:14:31;28.85;;;18.63;;
36449;SDS011;22475;51.390;7.180;2022-08-18T12:17:15;26.67;;;19.13;;
36449;SDS011;22475;51.390;7.180;2022-08-18T12:19:44;33.17;;;20.65;;
36449;SDS011;22475;51.390;7.180;2022-08-18T12:22:13;24.85;;;17.75;;
36449;SDS011;22475;51.390;7.180;2022-08-18T12:24:42;25.17;;;17.98;;
36449;SDS011;22475;51.390;7.180;2022-08-18T12:27:11;28.70;;;19.33;;
36449;SDS011;22475;51.390;7.180;2022-08-18T12:29:39;29.75;;;19.15;;
36449;SDS011;22475;51.390;7.180;2022-08-18T12:32:06;27.33;;;17.70;;
36449;SDS011;22475;51.390;7.180;2022-08-18T12:34:33;31.52;;;18.10;;
36449;SDS011;22475;51.390;7.180;2022-08-18T12:37:01;24.10;;;16.25;;
36449;SDS011;22475;51.390;7.180;2022-08-18T12:39:30;26.33;;;17.65;;
36449;SDS011;22475;51.390;7.180;2022-08-18T12:41:57;23.77;;;17.65;;
36449;SDS011;22475;51.390;7.180;2022-08-18T12:44:24;23.65;;;15.77;;
36449;SDS011;22475;51.390;7.180;2022-08-18T12:46:51;24.33;;;16.70;;
36449;SDS011;22475;51.390;7.180;2022-08-18T12:49:20;22.95;;;16.85;;
36449;SDS011;22475;51.390;7.180;2022-08-18T12:51:48;24.50;;;17.08;;
36449;SDS011;22475;51.390;7.180;2022-08-18T12:54:18;24.83;;;18.58;;
36449;SDS011;22475;51.390;7.180;2022-08-18T12:56:45;28.67;;;17.67;;
36449;SDS011;22475;51.390;7.180;2022-08-18T12:59:16;21.58;;;16.38;;
36449;SDS011;22475;51.390;7.180;2022-08-18T13:01:42;27.63;;;17.20;;
36449;SDS011;22475;51.390;7.180;2022-08-18T13:04:09;23.10;;;16.90;;
36449;SDS011;22475;51.390;7.180;2022-08-18T13:06:37;22.70;;;16.02;;
36449;SDS011;22475;51.390;7.180;2022-08-18T13:09:06;25.05;;;16.67;;
36449;SDS011;22475;51.390;7.180;2022-08-18T13:11:34;21.15;;;15.07;;
36449;SDS011;22475;51.390;7.180;2022-08-18T13:14:01;22.88;;;16.35;;
36449;SDS011;22475;51.390;7.180;2022-08-18T13:16:28;22.10;;;16.95;;
36449;SDS011;22475;51.390;7.180;2022-08-18T13:18:59;19.27;;;15.73;;
36449;SDS011;22475;51.390;7.180;2022-08-18T13:21:26;21.33;;;15.77;;
36449;SDS011;22475;51.390;7.180;2022-08-18T13:23:54;22.25;;;16.30;;
36449;SDS011;22475;51.390;7.180;2022-08-18T13:26:24;19.90;;;14.77;;
36449;SDS011;22475;51.390;7.180;2022-08-18T13:28:54;21.85;;;16.23;;
36449;SDS011;22475;51.390;7.180;2022-08-18T13:31:22;20.65;;;15.07;;
36449;SDS011;22475;51.390;7.180;2022-08-18T13:33:50;18.48;;;14.32;;
36449;SDS011;22475;51.390;7.180;2022-08-18T13:36:16;19.60;;;14.77;;
36449;SDS011;22475;51.390;7.180;2022-08-18T13:38:43;24.25;;;15.43;;
36449;SDS011;22475;51.390;7.180;2022-08-18T13:41:10;19.85;;;15.55;;
36449;SDS011;22475;51.390;7.180;2022-08-18T13:43:41;19.98;;;15.88;;
36449;SDS011;22475;51.390;7.180;2022-08-18T13:46:13;15.95;;;13.70;;
36449;SDS011;22475;51.390;7.180;2022-08-18T13:48:42;18.88;;;13.98;;
36449;SDS011;22475;51.390;7.180;2022-08-18T13:51:12;15.60;;;13.38;;
36449;SDS011;22475;51.390;7.180;2022-08-18T13:53:44;20.52;;;14.77;;
36449;SDS011;22475;51.390;7.180;2022-08-18T13:56:11;21.33;;;14.68;;
36449;SDS011;22475;51.390;7.180;2022-08-18T13:58:38;19.90;;;14.15;;
36449;SDS011;22475;51.390;7.180;2022-08-18T14:01:06;19.45;;;15.15;;
36449;SDS011;22475;51.390;7.180;2022-08-18T14:03:37;18.42;;;14.45;;
36449;SDS011;22475;51.390;7.180;2022-08-18T14:08:33;16.17;;;12.07;;
36449;SDS011;22475;51.390;7.180;2022-08-18T14:11:00;17.15;;;14.10;;
36449;SDS011;22475;51.390;7.180;2022-08-18T14:13:29;17.13;;;14.25;;
36449;SDS011;22475;51.390;7.180;2022-08-18T14:15:57;20.10;;;16.05;;
36449;SDS011;22475;51.390;7.180;2022-08-18T14:18:25;18.67;;;13.13;;
36449;SDS011;22475;51.390;7.180;2022-08-18T14:20:54;16.92;;;13.48;;
36449;SDS011;22475;51.390;7.180;2022-08-18T14:23:39;17.90;;;13.35;;
36449;SDS011;22475;51.390;7.180;2022-08-18T14:26:26;17.08;;;13.18;;
36449;SDS011;22475;51.390;7.180;2022-08-18T14:29:10;15.15;;;12.68;;
36449;SDS011;22475;51.390;7.180;2022-08-18T14:31:37;15.63;;;12.80;;
36449;SDS011;22475;51.390;7.180;2022-08-18T14:34:05;13.70;;;12.00;;
36449;SDS011;22475;51.390;7.180;2022-08-18T14:36:33;14.65;;;12.43;;
36449;SDS011;22475;51.390;7.180;2022-08-18T14:39:00;18.27;;;13.43;;
36449;SDS011;22475;51.390;7.180;2022-08-18T14:41:28;17.33;;;12.43;;
36449;SDS011;22475;51.390;7.180;2022-08-18T14:43:57;15.85;;;12.75;;
36449;SDS011;22475;51.390;7.180;2022-08-18T14:46:25;14.13;;;12.35;;
36449;SDS011;22475;51.390;7.180;2022-08-18T14:48:52;14.32;;;12.20;;
36449;SDS011;22475;51.390;7.180;2022-08-18T14:51:19;14.07;;;11.77;;
36449;SDS011;22475;51.390;7.180;2022-08-18T14:53:47;13.77;;;12.13;;
36449;SDS011;22475;51.390;7.180;2022-08-18T14:56:14;13.88;;;12.43;;
36449;SDS011;22475;51.390;7.180;2022-08-18T14:58:41;15.18;;;12.63;;
36449;SDS011;22475;51.390;7.180;2022-08-18T15:01:08;17.50;;;11.70;;
36449;SDS011;22475;51.390;7.180;2022-08-18T15:03:37;14.38;;;12.13;;
36449;SDS011;22475;51.390;7.180;2022-08-18T15:06:05;13.23;;;11.32;;
36449;SDS011;22475;51.390;7.180;2022-08-18T15:08:32;12.80;;;11.48;;
36449;SDS011;22475;51.390;7.180;2022-08-18T15:11:02;14.40;;;11.80;;
36449;SDS011;22475;51.390;7.180;2022-08-18T15:13:31;14.77;;;11.80;;
36449;SDS011;22475;51.390;7.180;2022-08-18T15:15:59;13.20;;;11.82;;
36449;SDS011;22475;51.390;7.180;2022-08-18T15:18:26;11.65;;;10.52;;
36449;SDS011;22475;51.390;7.180;2022-08-18T15:20:53;13.85;;;11.38;;
36449;SDS011;22475;51.390;7.180;2022-08-18T15:23:37;11.77;;;10.57;;
36449;SDS011;22475;51.390;7.180;2022-08-18T15:26:23;14.30;;;10.60;;